Terminal Aerodrome Forecast
Issued by NWS

Home | Current Version | Previous Version | Graphics & Text | Print | Product List | Glossary On
Versions: 1 2 3 4 5 6 7 8 9 10 11 12 13 14
970
FTUS42 KMHX 080039 AAA
TAFPGV
TAF AMD
KPGV 080039Z 0801/0824 35013G23KT 6SM -RA SCT030 OVC060
     FM080400 34011G20KT P6SM BKN060
     FM080800 32007KT P6SM SCT090
      AMD LTD TO CLD VIS AND WIND=

USA.gov is the U.S. government's official web portal to all federal, state and local government web resources and services.